createdAt,value
2023-01-15T00:00:18.941Z,5.70
2023-01-15T00:02:43.943Z,5.70
2023-01-15T00:05:09.309Z,5.80
2023-01-15T00:07:33.855Z,5.80
2023-01-15T00:09:58.457Z,5.90
2023-01-15T00:12:23.164Z,5.90
2023-01-15T00:14:47.763Z,6.00
2023-01-15T00:17:14.153Z,6.00
2023-01-15T00:19:39.193Z,6.10
2023-01-15T00:22:03.787Z,6.10
2023-01-15T00:24:45.673Z,6.10
2023-01-15T00:27:29.331Z,6.20
2023-01-15T00:29:53.806Z,6.20
2023-01-15T00:32:19.865Z,6.20
2023-01-15T00:34:44.417Z,6.20
2023-01-15T00:37:08.826Z,6.20
2023-01-15T00:39:33.615Z,6.20
2023-01-15T00:41:58.351Z,6.00
2023-01-15T00:44:23.282Z,6.00
2023-01-15T00:46:49.466Z,5.90
2023-01-15T00:49:15.648Z,5.90
2023-01-15T00:51:40.609Z,5.80
2023-01-15T00:54:05.700Z,5.80
2023-01-15T00:56:30.321Z,5.90
2023-01-15T00:58:55.346Z,5.80
2023-01-15T01:01:20.049Z,5.80
2023-01-15T01:03:48.955Z,5.80
2023-01-15T01:06:15.041Z,5.60
2023-01-15T01:08:39.488Z,5.60
2023-01-15T01:11:06.275Z,5.50
2023-01-15T01:13:30.752Z,5.40
2023-01-15T01:15:55.489Z,5.50
2023-01-15T01:18:20.061Z,5.50
2023-01-15T01:20:44.710Z,5.40
2023-01-15T01:23:10.800Z,5.50
2023-01-15T01:25:35.388Z,5.50
2023-01-15T01:27:59.768Z,5.30
2023-01-15T01:30:24.693Z,5.20
2023-01-15T01:32:49.255Z,5.10
2023-01-15T01:35:13.972Z,5.10
2023-01-15T01:37:38.426Z,5.20
2023-01-15T01:40:04.766Z,5.30
2023-01-15T01:42:29.402Z,5.30
2023-01-15T01:45:06.217Z,5.30
2023-01-15T01:47:32.757Z,5.20
2023-01-15T01:50:06.741Z,5.30
2023-01-15T01:52:38.213Z,5.30
2023-01-15T01:55:05.695Z,5.40
2023-01-15T01:57:30.683Z,5.50
2023-01-15T01:59:56.222Z,5.50
2023-01-15T02:02:23.383Z,5.40
2023-01-15T02:04:48.847Z,5.40
2023-01-15T02:07:13.336Z,5.30
2023-01-15T02:09:37.921Z,5.20
2023-01-15T02:12:13.111Z,5.10
2023-01-15T02:14:44.590Z,5.20
2023-01-15T02:17:14.961Z,5.30
2023-01-15T02:19:51.219Z,5.30
2023-01-15T02:22:24.538Z,5.30
2023-01-15T02:25:02.069Z,5.30
2023-01-15T02:27:29.201Z,5.40
2023-01-15T02:30:02.018Z,5.40
2023-01-15T02:32:40.747Z,5.40
2023-01-15T02:35:10.447Z,5.50
2023-01-15T02:37:40.984Z,5.60
2023-01-15T02:40:08.785Z,5.70
2023-01-15T02:42:37.512Z,5.80
2023-01-15T02:45:06.202Z,5.90
2023-01-15T02:47:35.522Z,5.90
2023-01-15T02:50:06.809Z,5.70
2023-01-15T02:52:41.480Z,5.80
2023-01-15T02:55:10.109Z,5.90
2023-01-15T02:57:45.012Z,5.90
2023-01-15T03:00:16.447Z,6.00
2023-01-15T03:02:47.638Z,6.00
2023-01-15T03:05:19.221Z,6.10
2023-01-15T03:07:50.917Z,6.10
2023-01-15T03:10:17.032Z,6.20
2023-01-15T03:13:03.961Z,6.20
2023-01-15T03:16:06.196Z,6.30
2023-01-15T03:18:35.942Z,6.30
2023-01-15T03:21:07.084Z,6.30
2023-01-15T03:23:32.296Z,6.40
2023-01-15T03:25:57.497Z,6.50
2023-01-15T03:28:27.258Z,6.50
2023-01-15T03:30:52.273Z,6.50
2023-01-15T03:33:17.621Z,6.50
2023-01-15T03:35:48.309Z,6.50
2023-01-15T03:38:25.564Z,6.50
2023-01-15T03:40:58.065Z,6.40
2023-01-15T03:43:43.472Z,6.30
2023-01-15T03:46:15.513Z,6.30
2023-01-15T03:48:48.180Z,6.30
2023-01-15T03:51:19.602Z,6.20
2023-01-15T03:53:50.380Z,6.20
2023-01-15T03:56:23.410Z,6.20
2023-01-15T03:58:54.201Z,6.20
2023-01-15T04:01:32.332Z,6.10
2023-01-15T04:03:59.766Z,6.10
2023-01-15T04:06:28.177Z,6.10
2023-01-15T04:08:55.739Z,6.20
2023-01-15T04:11:25.649Z,6.30
2023-01-15T04:13:56.308Z,6.30
2023-01-15T04:16:43.891Z,6.40
2023-01-15T04:19:10.379Z,6.40
2023-01-15T04:21:39.509Z,6.40
2023-01-15T04:24:04.431Z,6.50
2023-01-15T04:26:28.952Z,6.50
2023-01-15T04:28:53.500Z,6.50
2023-01-15T04:31:20.080Z,6.60
2023-01-15T04:33:44.724Z,6.60
2023-01-15T04:36:10.226Z,6.50
2023-01-15T04:38:34.857Z,6.60
2023-01-15T04:41:20.538Z,6.60
2023-01-15T04:44:02.296Z,6.70
2023-01-15T04:46:28.408Z,6.70
2023-01-15T04:48:53.443Z,6.70
2023-01-15T04:51:18.228Z,6.60
2023-01-15T04:53:42.949Z,6.60
2023-01-15T04:56:08.749Z,6.60
2023-01-15T04:58:33.858Z,6.70
2023-01-15T05:01:00.924Z,6.60
2023-01-15T05:03:27.298Z,6.60
2023-01-15T05:05:51.875Z,6.70
2023-01-15T05:08:16.400Z,6.70
2023-01-15T05:10:41.070Z,6.80
2023-01-15T05:13:06.019Z,6.70
2023-01-15T05:15:30.945Z,6.60
2023-01-15T05:17:55.447Z,6.70
2023-01-15T05:20:21.594Z,6.80
2023-01-15T05:22:46.276Z,6.80
2023-01-15T05:25:11.597Z,6.80
2023-01-15T05:27:37.145Z,7.00
2023-01-15T05:30:01.701Z,6.90
2023-01-15T05:32:26.992Z,6.90
2023-01-15T05:34:51.509Z,6.90
2023-01-15T05:37:17.796Z,7.00
2023-01-15T05:39:42.297Z,6.90
2023-01-15T05:42:08.196Z,7.00
2023-01-15T05:44:32.969Z,7.00
2023-01-15T05:47:00.276Z,7.00
2023-01-15T05:49:26.557Z,7.00
2023-01-15T05:51:52.091Z,7.00
2023-01-15T05:54:20.403Z,7.00
2023-01-15T05:56:46.003Z,7.00
2023-01-15T05:59:11.185Z,7.00
2023-01-15T06:01:36.328Z,7.00
2023-01-15T06:04:01.459Z,7.00
2023-01-15T06:06:26.406Z,7.10
2023-01-15T06:08:50.913Z,7.10
2023-01-15T06:11:17.206Z,7.10
2023-01-15T06:13:42.140Z,7.10
2023-01-15T06:16:07.220Z,7.20
2023-01-15T06:18:33.542Z,7.20
2023-01-15T06:20:58.175Z,7.20
2023-01-15T06:23:24.495Z,7.20
2023-01-15T06:25:49.354Z,7.30
2023-01-15T06:28:15.230Z,7.20
2023-01-15T06:30:41.189Z,7.20
2023-01-15T06:33:05.948Z,7.20
2023-01-15T06:35:30.685Z,7.10
2023-01-15T06:37:55.145Z,7.00
2023-01-15T06:40:20.260Z,7.00
2023-01-15T06:43:02.533Z,7.00
2023-01-15T06:45:55.681Z,7.10
2023-01-15T06:48:20.604Z,7.00
2023-01-15T06:50:45.148Z,7.00
2023-01-15T06:53:09.895Z,7.10
2023-01-15T06:55:34.377Z,7.10
2023-01-15T06:57:59.191Z,7.00
2023-01-15T07:00:23.862Z,6.90
2023-01-15T07:02:50.321Z,6.80
2023-01-15T07:05:15.021Z,6.90
2023-01-15T07:07:39.572Z,6.80
2023-01-15T07:10:04.202Z,6.90
2023-01-15T07:12:28.754Z,6.90
2023-01-15T07:14:53.562Z,7.00
2023-01-15T07:17:18.237Z,7.00
2023-01-15T07:19:44.694Z,6.90
2023-01-15T07:22:11.062Z,7.00
2023-01-15T07:24:35.961Z,7.10
2023-01-15T07:27:01.021Z,7.10
2023-01-15T07:29:25.645Z,7.10
2023-01-15T07:31:50.558Z,7.10
2023-01-15T07:34:15.126Z,6.90
2023-01-15T07:36:41.969Z,6.80
2023-01-15T07:39:07.187Z,6.60
2023-01-15T07:41:49.097Z,6.60
2023-01-15T07:44:31.517Z,6.60
2023-01-15T07:47:13.580Z,6.70
2023-01-15T07:49:47.060Z,6.80
2023-01-15T07:52:13.441Z,6.90
2023-01-15T07:54:37.974Z,6.90
2023-01-15T07:57:02.497Z,6.90
2023-01-15T07:59:27.348Z,6.90
2023-01-15T08:01:52.104Z,6.90
2023-01-15T08:04:16.706Z,7.00
2023-01-15T08:06:41.491Z,6.90
2023-01-15T08:09:07.592Z,7.00
2023-01-15T08:11:49.470Z,6.90
2023-01-15T08:14:32.310Z,7.00
2023-01-15T08:16:56.984Z,7.00
2023-01-15T08:19:21.648Z,7.10
2023-01-15T08:21:46.184Z,7.10
2023-01-15T08:24:12.307Z,7.10
2023-01-15T08:26:36.932Z,7.00
2023-01-15T08:29:01.620Z,7.10
2023-01-15T08:31:26.488Z,7.10
2023-01-15T08:33:51.308Z,7.10
2023-01-15T08:36:22.992Z,7.10
2023-01-15T08:38:50.687Z,7.20
2023-01-15T08:41:16.816Z,7.10
2023-01-15T08:43:41.592Z,7.20
2023-01-15T08:46:07.188Z,7.10
2023-01-15T08:48:33.663Z,7.00
2023-01-15T08:50:58.442Z,7.00
2023-01-15T08:53:24.417Z,7.00
2023-01-15T08:55:49.368Z,7.10
2023-01-15T08:58:17.209Z,7.10
2023-01-15T09:00:42.367Z,7.10
2023-01-15T09:03:07.086Z,7.10
2023-01-15T09:05:31.706Z,7.10
2023-01-15T09:07:56.431Z,7.10
2023-01-15T09:10:21.143Z,6.90
2023-01-15T09:12:46.836Z,7.10
2023-01-15T09:15:13.617Z,7.30
2023-01-15T09:17:40.744Z,7.20
2023-01-15T09:20:06.073Z,7.20
2023-01-15T09:22:34.374Z,7.30
2023-01-15T09:24:59.217Z,7.30
2023-01-15T09:27:24.120Z,7.30
2023-01-15T09:29:48.644Z,7.30
2023-01-15T09:32:14.649Z,7.20
2023-01-15T09:34:39.308Z,7.20
2023-01-15T09:37:03.805Z,7.30
2023-01-15T09:39:30.937Z,7.30
2023-01-15T09:42:13.112Z,7.30
2023-01-15T09:44:51.777Z,7.40
2023-01-15T09:47:24.204Z,7.40
2023-01-15T09:49:59.478Z,7.50
2023-01-15T09:52:33.561Z,7.50
2023-01-15T09:55:04.947Z,7.40
2023-01-15T09:57:31.616Z,7.50
2023-01-15T10:00:02.623Z,7.50
2023-01-15T10:02:45.510Z,7.60
2023-01-15T10:05:17.192Z,7.60
2023-01-15T10:07:52.025Z,7.60
2023-01-15T10:10:21.760Z,7.60
2023-01-15T10:12:48.646Z,7.50
2023-01-15T10:15:37.253Z,7.50
2023-01-15T10:18:03.935Z,7.50
2023-01-15T10:21:05.463Z,7.60
2023-01-15T10:23:40.300Z,7.50
2023-01-15T10:26:17.011Z,7.60
2023-01-15T10:29:08.137Z,7.60
2023-01-15T10:31:53.279Z,7.60
2023-01-15T10:37:00.441Z,7.50
2023-01-15T10:39:31.947Z,7.50
2023-01-15T10:42:11.868Z,7.50
2023-01-15T10:44:47.954Z,7.50
2023-01-15T10:47:16.652Z,7.60
2023-01-15T10:49:43.290Z,7.70
2023-01-15T10:52:18.867Z,7.70
2023-01-15T10:54:48.674Z,7.50
2023-01-15T10:57:20.520Z,7.60
2023-01-15T10:59:50.495Z,7.80
2023-01-15T11:02:26.440Z,7.90
2023-01-15T11:04:51.027Z,7.80
2023-01-15T11:07:18.441Z,7.80
2023-01-15T11:09:44.133Z,7.90
2023-01-15T11:12:39.635Z,7.90
2023-01-15T11:15:32.881Z,8.00
2023-01-15T11:18:15.142Z,8.10
2023-01-15T11:20:46.897Z,8.20
2023-01-15T11:23:15.432Z,8.10
2023-01-15T11:25:44.781Z,7.90
2023-01-15T11:28:10.097Z,7.90
2023-01-15T11:30:37.615Z,7.90
2023-01-15T11:33:04.937Z,7.90
2023-01-15T11:35:29.324Z,7.80
2023-01-15T11:38:07.300Z,7.80
2023-01-15T11:40:33.491Z,7.90
2023-01-15T11:43:15.464Z,7.90
2023-01-15T11:46:06.097Z,8.00
2023-01-15T11:48:48.407Z,8.00
2023-01-15T11:51:16.211Z,7.90
2023-01-15T11:53:44.395Z,8.00
2023-01-15T11:56:13.039Z,7.90
2023-01-15T11:58:44.803Z,8.00
2023-01-15T12:01:09.610Z,8.10
2023-01-15T12:03:37.883Z,8.10
2023-01-15T12:06:06.032Z,8.10
2023-01-15T12:08:48.740Z,8.10
2023-01-15T12:11:36.124Z,8.20
2023-01-15T12:14:17.194Z,8.30
2023-01-15T12:16:49.845Z,8.40
2023-01-15T12:19:22.802Z,8.30
2023-01-15T12:22:03.188Z,8.30
2023-01-15T12:24:59.093Z,8.40
2023-01-15T12:27:53.058Z,8.20
2023-01-15T12:30:26.665Z,8.10
2023-01-15T12:32:59.811Z,8.10
2023-01-15T12:35:38.632Z,8.30
2023-01-15T12:38:12.122Z,8.40
2023-01-15T12:40:45.794Z,8.20
2023-01-15T12:43:35.205Z,8.10
2023-01-15T12:46:02.109Z,8.00
2023-01-15T12:48:35.638Z,8.10
2023-01-15T12:51:03.418Z,8.10
2023-01-15T12:53:33.888Z,8.10
2023-01-15T12:56:04.097Z,8.10
2023-01-15T12:58:40.086Z,8.20
2023-01-15T13:01:12.266Z,8.20
2023-01-15T13:03:49.668Z,8.10
2023-01-15T13:06:17.034Z,8.10
2023-01-15T13:08:52.893Z,8.20
2023-01-15T13:11:17.636Z,8.30
2023-01-15T13:13:58.051Z,8.40
2023-01-15T13:16:29.413Z,8.40
2023-01-15T13:19:12.218Z,8.90
2023-01-15T13:21:40.414Z,9.90
2023-01-15T13:24:41.743Z,10.70
2023-01-15T13:27:18.701Z,10.50
2023-01-15T13:29:57.176Z,10.20
2023-01-15T13:32:24.171Z,9.80
2023-01-15T13:34:51.797Z,9.30
2023-01-15T13:37:29.111Z,8.90
2023-01-15T13:40:03.039Z,8.60
2023-01-15T13:42:38.036Z,8.40
2023-01-15T13:45:23.210Z,8.30
2023-01-15T13:47:50.764Z,8.40
2023-01-15T13:50:19.331Z,8.40
2023-01-15T13:52:44.327Z,8.40
2023-01-15T13:55:18.279Z,8.40
2023-01-15T13:57:44.879Z,8.40
2023-01-15T14:00:30.678Z,8.40
2023-01-15T14:02:57.081Z,8.30
2023-01-15T14:05:30.166Z,8.20
2023-01-15T14:07:55.510Z,8.10
2023-01-15T14:10:34.111Z,8.10
2023-01-15T14:13:19.404Z,8.20
2023-01-15T14:15:54.887Z,8.30
2023-01-15T14:18:34.713Z,8.30
2023-01-15T14:21:24.947Z,8.30
2023-01-15T14:24:14.327Z,8.20
2023-01-15T14:26:50.582Z,8.30
2023-01-15T14:29:35.038Z,8.30
2023-01-15T14:32:11.186Z,8.40
2023-01-15T14:34:37.187Z,8.50
2023-01-15T14:37:05.640Z,8.60
2023-01-15T14:39:35.684Z,8.60
2023-01-15T14:42:25.718Z,8.50
2023-01-15T14:44:59.390Z,8.50
2023-01-15T14:47:31.670Z,8.40
2023-01-15T14:50:19.495Z,8.50
2023-01-15T14:52:47.445Z,8.50
2023-01-15T14:55:14.360Z,8.40
2023-01-15T14:57:39.903Z,8.30
2023-01-15T15:00:06.632Z,8.30
2023-01-15T15:02:39.101Z,8.40
2023-01-15T15:05:09.079Z,8.40
2023-01-15T15:07:36.494Z,8.30
2023-01-15T15:10:05.629Z,8.40
2023-01-15T15:12:39.632Z,8.40
2023-01-15T15:15:12.304Z,8.30
2023-01-15T15:17:46.437Z,8.30
2023-01-15T15:20:40.736Z,8.40
2023-01-15T15:23:14.283Z,8.40
2023-01-15T15:25:41.934Z,8.40
2023-01-15T15:28:08.072Z,8.40
2023-01-15T15:30:35.171Z,8.40
2023-01-15T15:33:01.519Z,8.40
2023-01-15T15:35:29.292Z,8.40
2023-01-15T15:37:54.857Z,8.40
2023-01-15T15:40:21.388Z,8.40
2023-01-15T15:43:13.478Z,8.40
2023-01-15T15:45:55.850Z,8.40
2023-01-15T15:48:41.066Z,8.40
2023-01-15T15:51:06.732Z,8.40
2023-01-15T15:53:31.388Z,8.50
2023-01-15T15:55:58.331Z,8.50
2023-01-15T15:58:26.990Z,8.50
2023-01-15T16:00:53.828Z,8.50
2023-01-15T16:03:23.931Z,8.60
2023-01-15T16:05:57.857Z,8.50
2023-01-15T16:08:23.086Z,8.60
2023-01-15T16:10:50.997Z,8.60
2023-01-15T16:13:22.939Z,8.50
2023-01-15T16:15:49.191Z,8.50
2023-01-15T16:18:21.287Z,8.50
2023-01-15T16:20:47.379Z,8.50
2023-01-15T16:23:22.260Z,8.40
2023-01-15T16:25:58.107Z,8.40
2023-01-15T16:28:26.264Z,8.50
2023-01-15T16:30:57.283Z,8.50
2023-01-15T16:33:21.823Z,8.50
2023-01-15T16:35:48.297Z,8.40
2023-01-15T16:38:21.322Z,8.40
2023-01-15T16:40:48.116Z,8.20
2023-01-15T16:43:16.330Z,8.30
2023-01-15T16:45:59.894Z,8.20
2023-01-15T16:48:31.196Z,8.30
2023-01-15T16:50:58.342Z,8.30
2023-01-15T16:53:38.288Z,8.30
2023-01-15T16:56:02.545Z,8.40
2023-01-15T16:58:41.504Z,8.40
2023-01-15T17:01:37.888Z,8.40
2023-01-15T17:04:04.730Z,8.40
2023-01-15T17:06:31.764Z,8.30
2023-01-15T17:08:58.295Z,8.40
2023-01-15T17:11:26.262Z,8.40
2023-01-15T17:13:51.460Z,8.40
2023-01-15T17:16:20.171Z,8.30
2023-01-15T17:18:45.344Z,8.30
2023-01-15T17:21:18.039Z,8.30
2023-01-15T17:23:44.343Z,8.30
2023-01-15T17:26:12.317Z,8.30
2023-01-15T17:28:36.999Z,8.20
2023-01-15T17:31:03.270Z,8.20
2023-01-15T17:33:27.938Z,8.10
2023-01-15T17:35:56.873Z,8.00
2023-01-15T17:38:22.563Z,8.00
2023-01-15T17:40:48.747Z,8.00
2023-01-15T17:43:15.132Z,8.00
2023-01-15T17:45:39.665Z,7.90
2023-01-15T17:48:08.789Z,7.90
2023-01-15T17:50:33.256Z,7.80
2023-01-15T17:52:57.709Z,7.80
2023-01-15T17:55:42.639Z,7.70
2023-01-15T17:58:29.571Z,7.70
2023-01-15T18:01:12.732Z,7.80
2023-01-15T18:03:58.008Z,7.70
2023-01-15T18:06:23.667Z,7.70
2023-01-15T18:08:53.939Z,7.70
2023-01-15T18:11:18.731Z,7.70
2023-01-15T18:13:44.645Z,7.70
2023-01-15T18:16:09.684Z,7.70
2023-01-15T18:18:34.274Z,7.80
2023-01-15T18:21:00.581Z,7.70
2023-01-15T18:23:26.388Z,7.70
2023-01-15T18:25:50.981Z,7.60
2023-01-15T18:28:16.532Z,7.60
2023-01-15T18:30:42.826Z,7.60
2023-01-15T18:33:07.955Z,7.60
2023-01-15T18:35:32.729Z,7.50
2023-01-15T18:37:58.363Z,7.50
2023-01-15T18:40:27.124Z,7.50
2023-01-15T18:43:09.801Z,7.50
2023-01-15T18:45:52.025Z,7.40
2023-01-15T18:48:18.302Z,7.40
2023-01-15T18:50:43.227Z,7.40
2023-01-15T18:53:08.702Z,7.40
2023-01-15T18:55:33.166Z,7.40
2023-01-15T18:57:58.275Z,7.50
2023-01-15T19:00:24.558Z,7.50
2023-01-15T19:02:49.597Z,7.40
2023-01-15T19:05:17.303Z,7.30
2023-01-15T19:07:43.720Z,7.30
2023-01-15T19:10:09.229Z,7.30
2023-01-15T19:12:35.349Z,7.20
2023-01-15T19:15:17.247Z,7.20
2023-01-15T19:17:59.090Z,7.20
2023-01-15T19:20:25.093Z,7.20
2023-01-15T19:23:05.171Z,7.20
2023-01-15T19:25:33.618Z,7.10
2023-01-15T19:27:59.034Z,7.00
2023-01-15T19:30:24.405Z,7.00
2023-01-15T19:32:51.999Z,7.00
2023-01-15T19:35:21.455Z,7.00
2023-01-15T19:37:50.450Z,7.00
2023-01-15T19:40:18.446Z,7.00
2023-01-15T19:43:00.401Z,6.80
2023-01-15T19:45:42.662Z,6.90
2023-01-15T19:48:27.362Z,6.80
2023-01-15T19:50:54.277Z,6.80
2023-01-15T19:53:20.572Z,6.70
2023-01-15T19:55:46.356Z,6.90
2023-01-15T19:58:16.137Z,7.00
2023-01-15T20:00:41.475Z,7.00
2023-01-15T20:03:09.986Z,6.90
2023-01-15T20:05:34.628Z,6.90
2023-01-15T20:07:59.902Z,6.80
2023-01-15T20:10:27.957Z,6.80
2023-01-15T20:13:10.061Z,6.70
2023-01-15T20:15:34.603Z,6.80
2023-01-15T20:17:59.622Z,6.70
2023-01-15T20:20:24.673Z,6.70
2023-01-15T20:22:49.745Z,6.70
2023-01-15T20:25:14.326Z,6.80
2023-01-15T20:27:41.324Z,6.70
2023-01-15T20:30:08.514Z,6.80
2023-01-15T20:32:33.381Z,6.60
2023-01-15T20:34:57.739Z,6.60
2023-01-15T20:37:23.352Z,6.50
2023-01-15T20:39:47.772Z,6.50
2023-01-15T20:42:29.994Z,6.50
2023-01-15T20:44:55.935Z,6.50
2023-01-15T20:47:37.597Z,6.60
2023-01-15T20:50:02.339Z,6.50
2023-01-15T20:52:27.570Z,6.50
2023-01-15T20:54:52.045Z,6.50
2023-01-15T20:57:16.621Z,6.50
2023-01-15T20:59:41.120Z,6.40
2023-01-15T21:02:07.414Z,6.40
2023-01-15T21:04:32.365Z,6.30
2023-01-15T21:06:59.293Z,6.30
2023-01-15T21:09:23.807Z,6.30
2023-01-15T21:11:48.364Z,6.30
2023-01-15T21:14:12.861Z,6.20
2023-01-15T21:16:37.360Z,6.30
2023-01-15T21:19:04.927Z,6.30
2023-01-15T21:21:29.483Z,6.30
2023-01-15T21:23:53.820Z,6.30
2023-01-15T21:26:18.460Z,6.40
2023-01-15T21:28:44.311Z,6.40
2023-01-15T21:31:09.615Z,6.40
2023-01-15T21:33:34.513Z,6.40
2023-01-15T21:36:00.385Z,6.40
2023-01-15T21:38:24.839Z,6.50
2023-01-15T21:40:49.308Z,6.50
2023-01-15T21:43:31.112Z,6.40
2023-01-15T21:46:03.231Z,6.50
2023-01-15T21:48:28.029Z,6.50
2023-01-15T21:50:52.463Z,6.50
2023-01-15T21:53:18.472Z,6.50
2023-01-15T21:55:50.052Z,6.50
2023-01-15T21:58:14.570Z,6.50
2023-01-15T22:00:39.394Z,6.50
2023-01-15T22:03:04.045Z,6.50
2023-01-15T22:05:28.495Z,6.50
2023-01-15T22:07:53.289Z,6.50
2023-01-15T22:10:19.420Z,6.50
2023-01-15T22:12:43.818Z,6.50
2023-01-15T22:15:09.100Z,6.50
2023-01-15T22:17:33.633Z,6.40
2023-01-15T22:19:58.048Z,6.50
2023-01-15T22:22:23.059Z,6.50
2023-01-15T22:24:47.577Z,6.60
2023-01-15T22:27:16.659Z,6.60
2023-01-15T22:29:42.296Z,6.50
2023-01-15T22:32:07.725Z,6.60
2023-01-15T22:34:32.358Z,6.60
2023-01-15T22:36:57.001Z,6.60
2023-01-15T22:39:22.299Z,6.70
2023-01-15T22:42:04.834Z,6.70
2023-01-15T22:44:30.951Z,6.70
2023-01-15T22:46:55.311Z,6.60
2023-01-15T22:49:19.771Z,6.60
2023-01-15T22:51:44.148Z,6.80
2023-01-15T22:54:08.784Z,6.80
2023-01-15T22:56:33.243Z,6.80
2023-01-15T22:58:57.804Z,6.80
2023-01-15T23:01:24.431Z,6.80
2023-01-15T23:03:49.233Z,6.80
2023-01-15T23:06:13.908Z,6.90
2023-01-15T23:08:39.303Z,6.90
2023-01-15T23:11:03.944Z,6.90
2023-01-15T23:13:28.336Z,6.80
2023-01-15T23:15:58.166Z,6.70
2023-01-15T23:18:23.988Z,6.70
2023-01-15T23:20:48.290Z,6.70
2023-01-15T23:23:12.728Z,6.70
2023-01-15T23:25:37.077Z,6.70
2023-01-15T23:28:01.475Z,6.70
2023-01-15T23:30:25.839Z,6.70
2023-01-15T23:32:50.374Z,6.70
2023-01-15T23:35:16.356Z,6.60
2023-01-15T23:37:40.793Z,6.70
2023-01-15T23:40:05.731Z,6.80
2023-01-15T23:42:47.747Z,6.70
2023-01-15T23:45:29.981Z,6.70
2023-01-15T23:47:54.416Z,6.60
2023-01-15T23:50:20.264Z,6.60
2023-01-15T23:52:44.868Z,6.60
2023-01-15T23:55:10.201Z,6.50
2023-01-15T23:57:34.856Z,6.50
2023-01-15T23:59:59.247Z,6.50
